Suttons Bay, MI

3:27 AM EST on December 26, 2014 (GMT -0500)
Charlevoix Municipal | Change Station
CLOSE
Current Station
Airport
Location: Charlevoix,
Elevation: 669 ft
Nearby Weather Stations

Elev 669 ft 45.30 °N, 85.27 °W | Updated 12 minutes ago

Mostly Cloudy
Mostly Cloudy
38 °F
Feels Like 33 °F
N
8
Wind Variable Wind from SSW

Today
High -- | Low -- °F
--% Chance of Precip.
Yesterday
High -- | Low -- °F
Precip. -- in
8:19 AM 5:06 PM
Waxing Crescent, 23% visible
Pressure 30.00 in
Visibility 10.0 miles
Clouds Overcast 3000 ft
Windchill 33 °F
Dew Point 36 °F
Humidity 89%
Rainfall 0.00 in
Snow Depth Not available.
UV 0 out of 12
Pollen .10 out of 12
Air Quality Not available.
Flu Activity Not available.
METAR KCVX 260815Z AUTO 20007KT 10SM OVC030 04/02 A3000 RMK AO2 T00360020

More Conditions Fewer Conditions

Pressure 30.00 in
Visibility 10.0 miles
Clouds Overcast 3000 ft
Windchill 33 °F
Dew Point 36 °F
Humidity 89%
Rainfall 0.00 in
Snow Depth Not available.
UV 0 out of 12
Pollen .10 out of 12
Air Quality Not available.
Flu Activity Not available.
METAR KCVX 260815Z AUTO 20007KT 10SM OVC030 04/02 A3000 RMK AO2 T00360020

More Conditions Fewer Conditions

Nowcast | as of 3:00 am EST on December 26, 2014

At 4 am...mostly cloudy. Temperature 35. Southwest winds 9 mph. At 6 am...mostly cloudy. Temperature 35. Southwest winds 9 mph. At 8 am...mostly cloudy. Temperature 36. South winds 9 mph. At 10 am...mostly cloudy. Temperature 36. South winds 9 mph.

×

10-Day Weather Forecast

Almanac

Astronomy

Dec. 26, 2014 Rise Set
Actual Time
Civil Twilight
Nautical Twilight
Astronomical Twilight
Moon
Length of Visible Light
Length of Day
Tomorrow will be .
, % of the Moon is Illuminated

Today's Extremes

State Highs State Lows

Community

WunderPhotos

Upload Photos

1,780,570 photos uploaded!

WunderBlogs® & News

Nearby

Air Quality

  Air Quality AQ Index Pollutant
Not available.

Snow Depth

Station Depth Elevation

Earthquake Activity

City Distance Mag. Time & Date
Minimum magnitude displayed is 2.5.

Coastal Water Temperatures

Place Temperature

Nearby Weather Stations